sensor_id;sensor_type;location;lat;lon;timestamp;pressure;altitude;pressure_sealevel;temperature
56286;BMP180;42191;47.562;9.686;2022-09-02T00:01:16;96799.00;;;18.80
56286;BMP180;42191;47.562;9.686;2022-09-02T00:03:45;96793.00;;;18.80
56286;BMP180;42191;47.562;9.686;2022-09-02T00:06:12;96789.00;;;18.80
56286;BMP180;42191;47.562;9.686;2022-09-02T00:08:40;96788.00;;;18.70
56286;BMP180;42191;47.562;9.686;2022-09-02T00:11:08;96784.00;;;18.70
56286;BMP180;42191;47.562;9.686;2022-09-02T00:13:37;96782.00;;;18.70
56286;BMP180;42191;47.562;9.686;2022-09-02T00:16:04;96784.00;;;18.70
56286;BMP180;42191;47.562;9.686;2022-09-02T00:18:31;96779.00;;;18.60
56286;BMP180;42191;47.562;9.686;2022-09-02T00:20:57;96779.00;;;18.60
56286;BMP180;42191;47.562;9.686;2022-09-02T00:23:23;96781.00;;;18.60
56286;BMP180;42191;47.562;9.686;2022-09-02T00:25:50;96773.00;;;18.60
56286;BMP180;42191;47.562;9.686;2022-09-02T00:28:16;96784.00;;;18.50
56286;BMP180;42191;47.562;9.686;2022-09-02T00:30:43;96779.00;;;18.50
56286;BMP180;42191;47.562;9.686;2022-09-02T00:33:11;96772.00;;;18.50
56286;BMP180;42191;47.562;9.686;2022-09-02T00:35:37;96768.00;;;18.50
56286;BMP180;42191;47.562;9.686;2022-09-02T00:38:04;96779.00;;;18.50
56286;BMP180;42191;47.562;9.686;2022-09-02T00:40:31;96773.00;;;18.40
56286;BMP180;42191;47.562;9.686;2022-09-02T00:42:57;96775.00;;;18.40
56286;BMP180;42191;47.562;9.686;2022-09-02T00:45:23;96770.00;;;18.40
56286;BMP180;42191;47.562;9.686;2022-09-02T00:47:50;96759.00;;;18.40
56286;BMP180;42191;47.562;9.686;2022-09-02T00:50:20;96757.00;;;18.40
56286;BMP180;42191;47.562;9.686;2022-09-02T00:52:52;96763.00;;;18.30
56286;BMP180;42191;47.562;9.686;2022-09-02T00:55:29;96764.00;;;18.30
56286;BMP180;42191;47.562;9.686;2022-09-02T00:58:08;96766.00;;;18.30
56286;BMP180;42191;47.562;9.686;2022-09-02T01:00:42;96759.00;;;18.20
56286;BMP180;42191;47.562;9.686;2022-09-02T01:03:12;96771.00;;;18.20
56286;BMP180;42191;47.562;9.686;2022-09-02T01:05:42;96765.00;;;18.20
56286;BMP180;42191;47.562;9.686;2022-09-02T01:08:12;96773.00;;;18.20
56286;BMP180;42191;47.562;9.686;2022-09-02T01:10:38;96767.00;;;18.10
56286;BMP180;42191;47.562;9.686;2022-09-02T01:13:09;96776.00;;;18.10
56286;BMP180;42191;47.562;9.686;2022-09-02T01:15:39;96778.00;;;18.10
56286;BMP180;42191;47.562;9.686;2022-09-02T01:18:07;96771.00;;;18.10
56286;BMP180;42191;47.562;9.686;2022-09-02T01:20:34;96765.00;;;18.00
56286;BMP180;42191;47.562;9.686;2022-09-02T01:23:00;96770.00;;;18.00
56286;BMP180;42191;47.562;9.686;2022-09-02T01:25:30;96766.00;;;18.00
56286;BMP180;42191;47.562;9.686;2022-09-02T01:28:07;96770.00;;;17.90
56286;BMP180;42191;47.562;9.686;2022-09-02T01:30:35;96762.00;;;17.90
56286;BMP180;42191;47.562;9.686;2022-09-02T01:33:01;96771.00;;;17.90
56286;BMP180;42191;47.562;9.686;2022-09-02T01:35:28;96756.00;;;17.90
56286;BMP180;42191;47.562;9.686;2022-09-02T01:37:56;96762.00;;;17.90
56286;BMP180;42191;47.562;9.686;2022-09-02T01:40:23;96767.00;;;17.90
56286;BMP180;42191;47.562;9.686;2022-09-02T01:42:54;96765.00;;;17.80
56286;BMP180;42191;47.562;9.686;2022-09-02T01:45:21;96766.00;;;17.80
56286;BMP180;42191;47.562;9.686;2022-09-02T01:47:48;96751.00;;;17.80
56286;BMP180;42191;47.562;9.686;2022-09-02T01:50:14;96751.00;;;17.80
56286;BMP180;42191;47.562;9.686;2022-09-02T01:52:40;96758.00;;;17.80
56286;BMP180;42191;47.562;9.686;2022-09-02T01:55:06;96755.00;;;17.70
56286;BMP180;42191;47.562;9.686;2022-09-02T01:57:33;96755.00;;;17.70
56286;BMP180;42191;47.562;9.686;2022-09-02T01:59:59;96749.00;;;17.70
56286;BMP180;42191;47.562;9.686;2022-09-02T02:02:27;96746.00;;;17.70
56286;BMP180;42191;47.562;9.686;2022-09-02T02:04:53;96749.00;;;17.60
56286;BMP180;42191;47.562;9.686;2022-09-02T02:07:21;96743.00;;;17.60
56286;BMP180;42191;47.562;9.686;2022-09-02T02:09:48;96747.00;;;17.60
56286;BMP180;42191;47.562;9.686;2022-09-02T02:12:14;96751.00;;;17.60
56286;BMP180;42191;47.562;9.686;2022-09-02T02:14:41;96752.00;;;17.50
56286;BMP180;42191;47.562;9.686;2022-09-02T02:17:07;96751.00;;;17.50
56286;BMP180;42191;47.562;9.686;2022-09-02T02:19:33;96747.00;;;17.50
56286;BMP180;42191;47.562;9.686;2022-09-02T02:22:00;96741.00;;;17.40
56286;BMP180;42191;47.562;9.686;2022-09-02T02:24:26;96744.00;;;17.40
56286;BMP180;42191;47.562;9.686;2022-09-02T02:26:52;96744.00;;;17.40
56286;BMP180;42191;47.562;9.686;2022-09-02T02:29:19;96729.00;;;17.40
56286;BMP180;42191;47.562;9.686;2022-09-02T02:31:45;96729.00;;;17.40
56286;BMP180;42191;47.562;9.686;2022-09-02T02:34:12;96728.00;;;17.30
56286;BMP180;42191;47.562;9.686;2022-09-02T02:36:38;96724.00;;;17.30
56286;BMP180;42191;47.562;9.686;2022-09-02T02:39:07;96721.00;;;17.30
56286;BMP180;42191;47.562;9.686;2022-09-02T02:41:35;96732.00;;;17.30
56286;BMP180;42191;47.562;9.686;2022-09-02T02:44:02;96727.00;;;17.20
56286;BMP180;42191;47.562;9.686;2022-09-02T02:46:28;96731.00;;;17.20
56286;BMP180;42191;47.562;9.686;2022-09-02T02:48:59;96731.00;;;17.20
56286;BMP180;42191;47.562;9.686;2022-09-02T02:51:25;96735.00;;;17.10
56286;BMP180;42191;47.562;9.686;2022-09-02T02:53:52;96735.00;;;17.10
56286;BMP180;42191;47.562;9.686;2022-09-02T02:56:18;96728.00;;;17.10
56286;BMP180;42191;47.562;9.686;2022-09-02T02:58:44;96732.00;;;17.00
56286;BMP180;42191;47.562;9.686;2022-09-02T03:01:10;96727.00;;;17.00
56286;BMP180;42191;47.562;9.686;2022-09-02T03:03:36;96727.00;;;17.00
56286;BMP180;42191;47.562;9.686;2022-09-02T03:06:03;96728.00;;;17.00
56286;BMP180;42191;47.562;9.686;2022-09-02T03:08:29;96734.00;;;16.90
56286;BMP180;42191;47.562;9.686;2022-09-02T03:10:55;96728.00;;;16.90
56286;BMP180;42191;47.562;9.686;2022-09-02T03:13:24;96732.00;;;16.90
56286;BMP180;42191;47.562;9.686;2022-09-02T03:15:51;96725.00;;;16.80
56286;BMP180;42191;47.562;9.686;2022-09-02T03:18:17;96726.00;;;16.80
56286;BMP180;42191;47.562;9.686;2022-09-02T03:20:44;96723.00;;;16.80
56286;BMP180;42191;47.562;9.686;2022-09-02T03:23:11;96730.00;;;16.70
56286;BMP180;42191;47.562;9.686;2022-09-02T03:25:42;96728.00;;;16.70
56286;BMP180;42191;47.562;9.686;2022-09-02T03:28:09;96735.00;;;16.70
56286;BMP180;42191;47.562;9.686;2022-09-02T03:30:37;96733.00;;;16.60
56286;BMP180;42191;47.562;9.686;2022-09-02T03:33:03;96729.00;;;16.60
56286;BMP180;42191;47.562;9.686;2022-09-02T03:35:37;96732.00;;;16.60
56286;BMP180;42191;47.562;9.686;2022-09-02T03:38:04;96728.00;;;16.60
56286;BMP180;42191;47.562;9.686;2022-09-02T03:40:30;96732.00;;;16.50
56286;BMP180;42191;47.562;9.686;2022-09-02T03:42:56;96725.00;;;16.50
56286;BMP180;42191;47.562;9.686;2022-09-02T03:45:23;96733.00;;;16.50
56286;BMP180;42191;47.562;9.686;2022-09-02T03:47:49;96740.00;;;16.50
56286;BMP180;42191;47.562;9.686;2022-09-02T03:50:20;96729.00;;;16.50
56286;BMP180;42191;47.562;9.686;2022-09-02T03:52:47;96736.00;;;16.50
56286;BMP180;42191;47.562;9.686;2022-09-02T03:55:14;96726.00;;;16.50
56286;BMP180;42191;47.562;9.686;2022-09-02T03:57:40;96736.00;;;16.40
56286;BMP180;42191;47.562;9.686;2022-09-02T04:00:08;96726.00;;;16.40
56286;BMP180;42191;47.562;9.686;2022-09-02T04:02:35;96719.00;;;16.40
56286;BMP180;42191;47.562;9.686;2022-09-02T04:05:01;96722.00;;;16.30
56286;BMP180;42191;47.562;9.686;2022-09-02T04:07:27;96739.00;;;16.30
56286;BMP180;42191;47.562;9.686;2022-09-02T04:09:53;96731.00;;;16.30
56286;BMP180;42191;47.562;9.686;2022-09-02T04:12:21;96733.00;;;16.30
56286;BMP180;42191;47.562;9.686;2022-09-02T04:14:47;96733.00;;;16.30
56286;BMP180;42191;47.562;9.686;2022-09-02T04:17:14;96742.00;;;16.20
56286;BMP180;42191;47.562;9.686;2022-09-02T04:19:40;96733.00;;;16.20
56286;BMP180;42191;47.562;9.686;2022-09-02T04:22:07;96739.00;;;16.20
56286;BMP180;42191;47.562;9.686;2022-09-02T04:24:33;96728.00;;;16.20
56286;BMP180;42191;47.562;9.686;2022-09-02T04:27:00;96730.00;;;16.20
56286;BMP180;42191;47.562;9.686;2022-09-02T04:29:26;96739.00;;;16.10
56286;BMP180;42191;47.562;9.686;2022-09-02T04:31:53;96743.00;;;16.10
56286;BMP180;42191;47.562;9.686;2022-09-02T04:34:19;96729.00;;;16.10
56286;BMP180;42191;47.562;9.686;2022-09-02T04:36:45;96739.00;;;16.10
56286;BMP180;42191;47.562;9.686;2022-09-02T04:39:11;96745.00;;;16.10
56286;BMP180;42191;47.562;9.686;2022-09-02T04:41:38;96739.00;;;16.10
56286;BMP180;42191;47.562;9.686;2022-09-02T04:44:05;96735.00;;;16.00
56286;BMP180;42191;47.562;9.686;2022-09-02T04:46:32;96734.00;;;16.00
56286;BMP180;42191;47.562;9.686;2022-09-02T04:48:58;96729.00;;;16.00
56286;BMP180;42191;47.562;9.686;2022-09-02T04:51:26;96730.00;;;16.00
56286;BMP180;42191;47.562;9.686;2022-09-02T04:53:53;96741.00;;;16.00
56286;BMP180;42191;47.562;9.686;2022-09-02T04:56:26;96741.00;;;16.00
56286;BMP180;42191;47.562;9.686;2022-09-02T04:58:53;96750.00;;;16.00
56286;BMP180;42191;47.562;9.686;2022-09-02T05:01:25;96745.00;;;16.00
56286;BMP180;42191;47.562;9.686;2022-09-02T05:03:52;96733.00;;;16.00
56286;BMP180;42191;47.562;9.686;2022-09-02T05:06:24;96746.00;;;16.00
56286;BMP180;42191;47.562;9.686;2022-09-02T05:08:54;96747.00;;;16.00
56286;BMP180;42191;47.562;9.686;2022-09-02T05:11:23;96751.00;;;16.00
56286;BMP180;42191;47.562;9.686;2022-09-02T05:13:54;96740.00;;;16.00
56286;BMP180;42191;47.562;9.686;2022-09-02T05:16:24;96757.00;;;16.00
56286;BMP180;42191;47.562;9.686;2022-09-02T05:18:51;96758.00;;;16.10
56286;BMP180;42191;47.562;9.686;2022-09-02T05:21:17;96746.00;;;16.10
56286;BMP180;42191;47.562;9.686;2022-09-02T05:23:44;96753.00;;;16.10
56286;BMP180;42191;47.562;9.686;2022-09-02T05:26:11;96752.00;;;16.10
56286;BMP180;42191;47.562;9.686;2022-09-02T05:28:39;96750.00;;;16.20
56286;BMP180;42191;47.562;9.686;2022-09-02T05:31:16;96755.00;;;16.20
56286;BMP180;42191;47.562;9.686;2022-09-02T05:33:43;96753.00;;;16.30
56286;BMP180;42191;47.562;9.686;2022-09-02T05:36:15;96749.00;;;16.30
56286;BMP180;42191;47.562;9.686;2022-09-02T05:38:42;96752.00;;;16.30
56286;BMP180;42191;47.562;9.686;2022-09-02T05:41:12;96751.00;;;16.40
56286;BMP180;42191;47.562;9.686;2022-09-02T05:43:40;96746.00;;;16.40
56286;BMP180;42191;47.562;9.686;2022-09-02T05:46:08;96746.00;;;16.50
56286;BMP180;42191;47.562;9.686;2022-09-02T05:48:36;96753.00;;;16.50
56286;BMP180;42191;47.562;9.686;2022-09-02T05:51:21;96752.00;;;16.50
56286;BMP180;42191;47.562;9.686;2022-09-02T05:53:51;96750.00;;;16.60
56286;BMP180;42191;47.562;9.686;2022-09-02T05:56:18;96751.00;;;16.60
56286;BMP180;42191;47.562;9.686;2022-09-02T05:58:44;96750.00;;;16.70
56286;BMP180;42191;47.562;9.686;2022-09-02T06:01:11;96745.00;;;16.80
56286;BMP180;42191;47.562;9.686;2022-09-02T06:03:38;96745.00;;;16.80
56286;BMP180;42191;47.562;9.686;2022-09-02T06:06:04;96740.00;;;16.90
56286;BMP180;42191;47.562;9.686;2022-09-02T06:08:32;96751.00;;;16.90
56286;BMP180;42191;47.562;9.686;2022-09-02T06:10:58;96752.00;;;17.00
56286;BMP180;42191;47.562;9.686;2022-09-02T06:13:28;96750.00;;;17.00
56286;BMP180;42191;47.562;9.686;2022-09-02T06:15:54;96748.00;;;17.10
56286;BMP180;42191;47.562;9.686;2022-09-02T06:18:20;96747.00;;;17.10
56286;BMP180;42191;47.562;9.686;2022-09-02T06:20:47;96755.00;;;17.20
56286;BMP180;42191;47.562;9.686;2022-09-02T06:23:14;96741.00;;;17.30
56286;BMP180;42191;47.562;9.686;2022-09-02T06:25:43;96741.00;;;17.30
56286;BMP180;42191;47.562;9.686;2022-09-02T06:28:10;96753.00;;;17.40
56286;BMP180;42191;47.562;9.686;2022-09-02T06:30:41;96749.00;;;17.50
56286;BMP180;42191;47.562;9.686;2022-09-02T06:33:07;96744.00;;;17.50
56286;BMP180;42191;47.562;9.686;2022-09-02T06:35:38;96749.00;;;17.60
56286;BMP180;42191;47.562;9.686;2022-09-02T06:38:04;96741.00;;;17.70
56286;BMP180;42191;47.562;9.686;2022-09-02T06:40:30;96748.00;;;17.80
56286;BMP180;42191;47.562;9.686;2022-09-02T06:42:56;96751.00;;;17.90
56286;BMP180;42191;47.562;9.686;2022-09-02T06:45:23;96757.00;;;17.90
56286;BMP180;42191;47.562;9.686;2022-09-02T06:47:49;96750.00;;;18.00
56286;BMP180;42191;47.562;9.686;2022-09-02T06:50:16;96746.00;;;18.10
56286;BMP180;42191;47.562;9.686;2022-09-02T06:52:42;96748.00;;;18.20
56286;BMP180;42191;47.562;9.686;2022-09-02T06:55:09;96744.00;;;18.30
56286;BMP180;42191;47.562;9.686;2022-09-02T06:57:36;96750.00;;;18.40
56286;BMP180;42191;47.562;9.686;2022-09-02T07:00:05;96749.00;;;18.40
56286;BMP180;42191;47.562;9.686;2022-09-02T07:02:32;96742.00;;;18.50
56286;BMP180;42191;47.562;9.686;2022-09-02T07:04:58;96735.00;;;18.60
56286;BMP180;42191;47.562;9.686;2022-09-02T07:07:41;96742.00;;;18.70
56286;BMP180;42191;47.562;9.686;2022-09-02T07:10:11;96744.00;;;18.70
56286;BMP180;42191;47.562;9.686;2022-09-02T07:12:38;96734.00;;;18.80
56286;BMP180;42191;47.562;9.686;2022-09-02T07:15:05;96749.00;;;18.90
56286;BMP180;42191;47.562;9.686;2022-09-02T07:17:32;96741.00;;;18.90
56286;BMP180;42191;47.562;9.686;2022-09-02T07:19:59;96751.00;;;19.00
56286;BMP180;42191;47.562;9.686;2022-09-02T07:22:26;96749.00;;;19.00
56286;BMP180;42191;47.562;9.686;2022-09-02T07:24:53;96753.00;;;19.10
56286;BMP180;42191;47.562;9.686;2022-09-02T07:27:19;96745.00;;;19.20
56286;BMP180;42191;47.562;9.686;2022-09-02T07:29:46;96750.00;;;19.30
56286;BMP180;42191;47.562;9.686;2022-09-02T07:32:14;96751.00;;;19.30
56286;BMP180;42191;47.562;9.686;2022-09-02T07:34:40;96751.00;;;19.40
56286;BMP180;42191;47.562;9.686;2022-09-02T07:37:07;96746.00;;;19.40
56286;BMP180;42191;47.562;9.686;2022-09-02T07:39:33;96752.00;;;19.50
56286;BMP180;42191;47.562;9.686;2022-09-02T07:41:59;96746.00;;;19.50
56286;BMP180;42191;47.562;9.686;2022-09-02T07:44:26;96753.00;;;19.60
56286;BMP180;42191;47.562;9.686;2022-09-02T07:46:53;96740.00;;;19.70
56286;BMP180;42191;47.562;9.686;2022-09-02T07:49:19;96748.00;;;19.70
56286;BMP180;42191;47.562;9.686;2022-09-02T07:51:47;96740.00;;;19.80
56286;BMP180;42191;47.562;9.686;2022-09-02T07:54:14;96747.00;;;19.90
56286;BMP180;42191;47.562;9.686;2022-09-02T07:56:41;96734.00;;;19.90
56286;BMP180;42191;47.562;9.686;2022-09-02T07:59:08;96743.00;;;20.00
56286;BMP180;42191;47.562;9.686;2022-09-02T08:01:35;96745.00;;;20.10
56286;BMP180;42191;47.562;9.686;2022-09-02T08:04:02;96751.00;;;20.10
56286;BMP180;42191;47.562;9.686;2022-09-02T08:06:29;96751.00;;;20.20
56286;BMP180;42191;47.562;9.686;2022-09-02T08:08:56;96731.00;;;20.30
56286;BMP180;42191;47.562;9.686;2022-09-02T08:11:23;96742.00;;;20.30
56286;BMP180;42191;47.562;9.686;2022-09-02T08:13:50;96747.00;;;20.40
56286;BMP180;42191;47.562;9.686;2022-09-02T08:16:16;96752.00;;;20.40
56286;BMP180;42191;47.562;9.686;2022-09-02T08:18:42;96746.00;;;20.50
56286;BMP180;42191;47.562;9.686;2022-09-02T08:21:08;96741.00;;;20.50
56286;BMP180;42191;47.562;9.686;2022-09-02T08:23:34;96740.00;;;20.60
56286;BMP180;42191;47.562;9.686;2022-09-02T08:26:02;96729.00;;;20.70
56286;BMP180;42191;47.562;9.686;2022-09-02T08:28:29;96741.00;;;20.70
56286;BMP180;42191;47.562;9.686;2022-09-02T08:30:56;96731.00;;;20.70
56286;BMP180;42191;47.562;9.686;2022-09-02T08:33:24;96741.00;;;20.80
56286;BMP180;42191;47.562;9.686;2022-09-02T08:35:50;96739.00;;;20.80
56286;BMP180;42191;47.562;9.686;2022-09-02T08:38:16;96745.00;;;20.90
56286;BMP180;42191;47.562;9.686;2022-09-02T08:40:44;96733.00;;;20.90
56286;BMP180;42191;47.562;9.686;2022-09-02T08:43:34;96739.00;;;21.00
56286;BMP180;42191;47.562;9.686;2022-09-02T08:46:06;96742.00;;;21.00
56286;BMP180;42191;47.562;9.686;2022-09-02T08:48:38;96740.00;;;21.10
56286;BMP180;42191;47.562;9.686;2022-09-02T08:51:19;96732.00;;;21.10
56286;BMP180;42191;47.562;9.686;2022-09-02T08:53:57;96740.00;;;21.20
56286;BMP180;42191;47.562;9.686;2022-09-02T08:56:25;96741.00;;;21.20
56286;BMP180;42191;47.562;9.686;2022-09-02T08:58:53;96732.00;;;21.30
56286;BMP180;42191;47.562;9.686;2022-09-02T09:04:41;96729.00;;;21.30
56286;BMP180;42191;47.562;9.686;2022-09-02T09:10:12;96725.00;;;21.40
56286;BMP180;42191;47.562;9.686;2022-09-02T09:18:16;96727.00;;;21.60
56286;BMP180;42191;47.562;9.686;2022-09-02T09:20:44;96725.00;;;21.60
56286;BMP180;42191;47.562;9.686;2022-09-02T09:23:35;96729.00;;;21.70
56286;BMP180;42191;47.562;9.686;2022-09-02T09:28:41;96724.00;;;21.70
56286;BMP180;42191;47.562;9.686;2022-09-02T09:31:16;96714.00;;;21.80
56286;BMP180;42191;47.562;9.686;2022-09-02T09:34:04;96710.00;;;21.80
56286;BMP180;42191;47.562;9.686;2022-09-02T09:36:47;96710.00;;;21.80
56286;BMP180;42191;47.562;9.686;2022-09-02T09:39:17;96708.00;;;21.90
56286;BMP180;42191;47.562;9.686;2022-09-02T09:41:45;96702.00;;;21.90
56286;BMP180;42191;47.562;9.686;2022-09-02T09:47:14;96711.00;;;22.00
56286;BMP180;42191;47.562;9.686;2022-09-02T09:49:47;96707.00;;;22.00
56286;BMP180;42191;47.562;9.686;2022-09-02T09:52:28;96701.00;;;22.10
56286;BMP180;42191;47.562;9.686;2022-09-02T09:55:11;96708.00;;;22.10
56286;BMP180;42191;47.562;9.686;2022-09-02T09:57:39;96703.00;;;22.10
56286;BMP180;42191;47.562;9.686;2022-09-02T10:00:17;96705.00;;;22.10
56286;BMP180;42191;47.562;9.686;2022-09-02T10:02:53;96705.00;;;22.10
56286;BMP180;42191;47.562;9.686;2022-09-02T10:05:27;96701.00;;;22.20
56286;BMP180;42191;47.562;9.686;2022-09-02T10:08:00;96709.00;;;22.20
56286;BMP180;42191;47.562;9.686;2022-09-02T10:10:29;96699.00;;;22.30
56286;BMP180;42191;47.562;9.686;2022-09-02T10:13:16;96703.00;;;22.30
56286;BMP180;42191;47.562;9.686;2022-09-02T10:21:36;96690.00;;;22.40
56286;BMP180;42191;47.562;9.686;2022-09-02T10:26:58;96699.00;;;22.50
56286;BMP180;42191;47.562;9.686;2022-09-02T10:29:34;96694.00;;;22.50
56286;BMP180;42191;47.562;9.686;2022-09-02T10:32:21;96693.00;;;22.60
56286;BMP180;42191;47.562;9.686;2022-09-02T10:35:04;96691.00;;;22.60
56286;BMP180;42191;47.562;9.686;2022-09-02T10:38:01;96695.00;;;22.60
56286;BMP180;42191;47.562;9.686;2022-09-02T10:40:35;96681.00;;;22.70
56286;BMP180;42191;47.562;9.686;2022-09-02T10:43:27;96677.00;;;22.70
56286;BMP180;42191;47.562;9.686;2022-09-02T10:46:00;96686.00;;;22.70
56286;BMP180;42191;47.562;9.686;2022-09-02T10:54:20;96676.00;;;22.80
56286;BMP180;42191;47.562;9.686;2022-09-02T11:00:02;96670.00;;;22.90
56286;BMP180;42191;47.562;9.686;2022-09-02T11:08:02;96656.00;;;23.00
56286;BMP180;42191;47.562;9.686;2022-09-02T11:10:38;96657.00;;;23.10
56286;BMP180;42191;47.562;9.686;2022-09-02T11:13:20;96659.00;;;23.10
56286;BMP180;42191;47.562;9.686;2022-09-02T11:16:01;96652.00;;;23.20
56286;BMP180;42191;47.562;9.686;2022-09-02T11:18:52;96658.00;;;23.30
56286;BMP180;42191;47.562;9.686;2022-09-02T11:24:32;96655.00;;;23.40
56286;BMP180;42191;47.562;9.686;2022-09-02T11:27:16;96645.00;;;23.50
56286;BMP180;42191;47.562;9.686;2022-09-02T11:30:03;96655.00;;;23.50
56286;BMP180;42191;47.562;9.686;2022-09-02T11:32:45;96653.00;;;23.60
56286;BMP180;42191;47.562;9.686;2022-09-02T11:35:24;96650.00;;;23.70
56286;BMP180;42191;47.562;9.686;2022-09-02T11:43:21;96652.00;;;23.90
56286;BMP180;42191;47.562;9.686;2022-09-02T11:54:18;96653.00;;;24.10
56286;BMP180;42191;47.562;9.686;2022-09-02T11:56:56;96650.00;;;24.20
56286;BMP180;42191;47.562;9.686;2022-09-02T12:02:39;96662.00;;;24.30
56286;BMP180;42191;47.562;9.686;2022-09-02T12:19:38;96656.00;;;24.60
56286;BMP180;42191;47.562;9.686;2022-09-02T12:21:34;96653.00;;;24.70
56286;BMP180;42191;47.562;9.686;2022-09-02T12:31:48;96642.00;;;25.00
56286;BMP180;42191;47.562;9.686;2022-09-02T12:36:57;96635.00;;;25.20
56286;BMP180;42191;47.562;9.686;2022-09-02T12:44:51;96629.00;;;25.40
56286;BMP180;42191;47.562;9.686;2022-09-02T12:50:08;96618.00;;;25.50
56286;BMP180;42191;47.562;9.686;2022-09-02T12:52:42;96618.00;;;25.60
56286;BMP180;42191;47.562;9.686;2022-09-02T12:55:28;96604.00;;;25.70
56286;BMP180;42191;47.562;9.686;2022-09-02T13:00:56;96606.00;;;26.00
56286;BMP180;42191;47.562;9.686;2022-09-02T13:09:02;96595.00;;;26.30
56286;BMP180;42191;47.562;9.686;2022-09-02T13:20:31;96573.00;;;26.30
56286;BMP180;42191;47.562;9.686;2022-09-02T13:31:21;96554.00;;;27.70
56286;BMP180;42191;47.562;9.686;2022-09-02T13:34:04;96551.00;;;28.30
56286;BMP180;42191;47.562;9.686;2022-09-02T13:36:42;96551.00;;;29.00
56286;BMP180;42191;47.562;9.686;2022-09-02T13:39:23;96551.00;;;29.70
56286;BMP180;42191;47.562;9.686;2022-09-02T13:41:49;96546.00;;;30.30
56286;BMP180;42191;47.562;9.686;2022-09-02T13:44:22;96539.00;;;31.00
56286;BMP180;42191;47.562;9.686;2022-09-02T13:47:15;96546.00;;;31.70
56286;BMP180;42191;47.562;9.686;2022-09-02T13:49:45;96532.00;;;32.40
56286;BMP180;42191;47.562;9.686;2022-09-02T13:52:20;96531.00;;;33.10
56286;BMP180;42191;47.562;9.686;2022-09-02T13:54:53;96532.00;;;33.80
56286;BMP180;42191;47.562;9.686;2022-09-02T13:57:24;96536.00;;;34.40
56286;BMP180;42191;47.562;9.686;2022-09-02T13:59:52;96524.00;;;34.90
56286;BMP180;42191;47.562;9.686;2022-09-02T14:02:28;96528.00;;;35.30
56286;BMP180;42191;47.562;9.686;2022-09-02T14:04:57;96526.00;;;35.70
56286;BMP180;42191;47.562;9.686;2022-09-02T14:07:34;96531.00;;;36.00
56286;BMP180;42191;47.562;9.686;2022-09-02T14:10:05;96523.00;;;36.30
56286;BMP180;42191;47.562;9.686;2022-09-02T14:12:34;96523.00;;;36.60
56286;BMP180;42191;47.562;9.686;2022-09-02T14:15:02;96529.00;;;36.80
56286;BMP180;42191;47.562;9.686;2022-09-02T14:17:28;96526.00;;;37.00
56286;BMP180;42191;47.562;9.686;2022-09-02T14:20:18;96516.00;;;37.20
56286;BMP180;42191;47.562;9.686;2022-09-02T14:22:55;96513.00;;;37.40
56286;BMP180;42191;47.562;9.686;2022-09-02T14:25:22;96510.00;;;37.60
56286;BMP180;42191;47.562;9.686;2022-09-02T14:27:54;96509.00;;;37.80
56286;BMP180;42191;47.562;9.686;2022-09-02T14:30:40;96512.00;;;38.10
56286;BMP180;42191;47.562;9.686;2022-09-02T14:33:25;96508.00;;;38.30
56286;BMP180;42191;47.562;9.686;2022-09-02T14:38:30;96509.00;;;38.20
56286;BMP180;42191;47.562;9.686;2022-09-02T14:41:09;96500.00;;;38.10
56286;BMP180;42191;47.562;9.686;2022-09-02T14:43:45;96511.00;;;38.10
56286;BMP180;42191;47.562;9.686;2022-09-02T14:46:34;96498.00;;;38.10
56286;BMP180;42191;47.562;9.686;2022-09-02T14:49:07;96499.00;;;38.10
56286;BMP180;42191;47.562;9.686;2022-09-02T14:51:37;96501.00;;;38.10
56286;BMP180;42191;47.562;9.686;2022-09-02T14:54:05;96502.00;;;38.00
56286;BMP180;42191;47.562;9.686;2022-09-02T14:56:49;96496.00;;;38.00
56286;BMP180;42191;47.562;9.686;2022-09-02T14:59:16;96492.00;;;38.10
56286;BMP180;42191;47.562;9.686;2022-09-02T15:01:46;96494.00;;;38.00
56286;BMP180;42191;47.562;9.686;2022-09-02T15:04:12;96500.00;;;37.90
56286;BMP180;42191;47.562;9.686;2022-09-02T15:06:39;96496.00;;;37.70
56286;BMP180;42191;47.562;9.686;2022-09-02T15:09:05;96474.00;;;37.40
56286;BMP180;42191;47.562;9.686;2022-09-02T15:11:32;96497.00;;;37.10
56286;BMP180;42191;47.562;9.686;2022-09-02T15:13:58;96496.00;;;36.80
56286;BMP180;42191;47.562;9.686;2022-09-02T15:16:24;96501.00;;;36.50
56286;BMP180;42191;47.562;9.686;2022-09-02T15:18:50;96501.00;;;36.20
56286;BMP180;42191;47.562;9.686;2022-09-02T15:21:17;96498.00;;;35.90
56286;BMP180;42191;47.562;9.686;2022-09-02T15:23:44;96498.00;;;35.60
56286;BMP180;42191;47.562;9.686;2022-09-02T15:26:11;96493.00;;;35.30
56286;BMP180;42191;47.562;9.686;2022-09-02T15:28:37;96498.00;;;35.00
56286;BMP180;42191;47.562;9.686;2022-09-02T15:31:04;96490.00;;;34.70
56286;BMP180;42191;47.562;9.686;2022-09-02T15:33:30;96494.00;;;34.40
56286;BMP180;42191;47.562;9.686;2022-09-02T15:36:05;96490.00;;;34.20
56286;BMP180;42191;47.562;9.686;2022-09-02T15:38:31;96500.00;;;34.10
56286;BMP180;42191;47.562;9.686;2022-09-02T15:41:09;96502.00;;;34.10
56286;BMP180;42191;47.562;9.686;2022-09-02T15:43:36;96514.00;;;33.90
56286;BMP180;42191;47.562;9.686;2022-09-02T15:46:05;96516.00;;;33.80
56286;BMP180;42191;47.562;9.686;2022-09-02T15:48:40;96515.00;;;33.50
56286;BMP180;42191;47.562;9.686;2022-09-02T15:51:14;96524.00;;;33.20
56286;BMP180;42191;47.562;9.686;2022-09-02T15:53:41;96515.00;;;32.90
56286;BMP180;42191;47.562;9.686;2022-09-02T15:56:27;96513.00;;;32.50
56286;BMP180;42191;47.562;9.686;2022-09-02T15:58:55;96515.00;;;32.10
56286;BMP180;42191;47.562;9.686;2022-09-02T16:01:26;96504.00;;;31.80
56286;BMP180;42191;47.562;9.686;2022-09-02T16:03:52;96507.00;;;31.50
56286;BMP180;42191;47.562;9.686;2022-09-02T16:06:19;96511.00;;;31.30
56286;BMP180;42191;47.562;9.686;2022-09-02T16:08:45;96515.00;;;31.10
56286;BMP180;42191;47.562;9.686;2022-09-02T16:11:11;96508.00;;;30.90
56286;BMP180;42191;47.562;9.686;2022-09-02T16:13:37;96505.00;;;30.60
56286;BMP180;42191;47.562;9.686;2022-09-02T16:16:06;96499.00;;;30.50
56286;BMP180;42191;47.562;9.686;2022-09-02T16:18:34;96503.00;;;30.30
56286;BMP180;42191;47.562;9.686;2022-09-02T16:21:01;96500.00;;;30.20
56286;BMP180;42191;47.562;9.686;2022-09-02T16:23:27;96501.00;;;30.10
56286;BMP180;42191;47.562;9.686;2022-09-02T16:26:13;96499.00;;;30.00